Time;durP1;ratioP1;P1;durP2;ratioP2;P2;SDS_P1;SDS_P2;PMS_P1;PMS_P2;Temp;Humidity;BMP_temperature;BMP_pressure;BME280_temperature;BME280_humidity;BME280_pressure;Samples;Min_cycle;Max_cycle;Signal;HPM_P1;HPM_P2
2023/06/10 00:01:47;;;;;;;4.47;2.35;;;;;;;;;;6104058;23;20014;-91
2023/06/10 00:04:13;;;;;;;4.95;2.35;;;;;;;;;;6130277;23;20045;-93
2023/06/10 00:06:40;;;;;;;6.13;2.33;;;;;;;;;;6102505;23;20060;-91
2023/06/10 00:09:14;;;;;;;4.75;2.40;;;;;;;;;;6102740;23;20092;-92
2023/06/10 00:11:40;;;;;;;4.45;2.35;;;;;;;;;;6101427;23;20021;-91
2023/06/10 00:14:06;;;;;;;4.18;2.40;;;;;;;;;;6128493;23;20014;-92
2023/06/10 00:16:33;;;;;;;4.68;2.50;;;;;;;;;;6104001;23;20014;-90
2023/06/10 00:19:02;;;;;;;4.30;2.40;;;;;;;;;;6130054;23;20050;-93
2023/06/10 00:21:29;;;;;;;5.35;2.33;;;;;;;;;;6129275;23;20010;-94
2023/06/10 00:23:56;;;;;;;7.25;2.63;;;;;;;;;;6128901;23;20022;-93
2023/06/10 00:26:25;;;;;;;4.65;2.45;;;;;;;;;;6127712;23;20017;-90
2023/06/10 00:28:52;;;;;;;3.67;2.47;;;;;;;;;;6102691;23;20103;-95
2023/06/10 00:31:22;;;;;;;4.00;2.25;;;;;;;;;;6105531;23;20024;-94
2023/06/10 00:33:48;;;;;;;4.95;2.47;;;;;;;;;;6103688;23;20022;-90
2023/06/10 00:36:14;;;;;;;5.40;2.88;;;;;;;;;;6129013;23;20368;-91
2023/06/10 00:38:40;;;;;;;4.90;2.30;;;;;;;;;;6130966;23;20020;-91
2023/06/10 00:41:07;;;;;;;4.90;2.38;;;;;;;;;;6113817;23;20065;-93
2023/06/10 00:43:33;;;;;;;4.57;2.58;;;;;;;;;;6108654;23;20014;-91
2023/06/10 00:45:59;;;;;;;4.07;2.72;;;;;;;;;;6131215;23;20014;-94
2023/06/10 00:48:26;;;;;;;3.38;2.47;;;;;;;;;;6103161;23;20033;-90
2023/06/10 00:50:52;;;;;;;5.70;2.90;;;;;;;;;;6128621;23;20064;-94
2023/06/10 00:53:18;;;;;;;5.68;3.00;;;;;;;;;;6130958;23;20029;-93
2023/06/10 00:55:45;;;;;;;3.25;2.15;;;;;;;;;;6107646;23;20040;-93
2023/06/10 00:58:12;;;;;;;7.20;2.80;;;;;;;;;;6132583;23;20010;-95
2023/06/10 01:00:38;;;;;;;4.95;2.63;;;;;;;;;;6131001;23;20017;-94
2023/06/10 01:03:07;;;;;;;4.05;2.33;;;;;;;;;;6106829;23;20092;-90
2023/06/10 01:05:37;;;;;;;5.05;2.67;;;;;;;;;;6103495;23;20021;-91
2023/06/10 01:08:07;;;;;;;3.13;2.53;;;;;;;;;;6107362;23;19997;-94
2023/06/10 01:10:35;;;;;;;4.72;2.88;;;;;;;;;;6127357;23;20267;-90
2023/06/10 01:13:06;;;;;;;4.88;2.90;;;;;;;;;;6101334;23;20101;-92
2023/06/10 01:15:33;;;;;;;7.10;2.85;;;;;;;;;;6106102;23;20037;-96
2023/06/10 01:18:01;;;;;;;4.80;3.00;;;;;;;;;;6128785;23;20060;-93
2023/06/10 01:20:28;;;;;;;5.43;2.80;;;;;;;;;;6130159;23;20022;-95
2023/06/10 01:22:55;;;;;;;6.13;2.70;;;;;;;;;;6103914;23;20022;-92
2023/06/10 01:25:28;;;;;;;4.63;2.60;;;;;;;;;;6106329;23;20014;-93
2023/06/10 01:28:01;;;;;;;5.28;2.95;;;;;;;;;;6106759;23;20017;-95
2023/06/10 01:30:30;;;;;;;5.47;2.90;;;;;;;;;;6127382;23;20018;-95
2023/06/10 01:33:00;;;;;;;6.63;3.00;;;;;;;;;;6128641;23;20014;-91
2023/06/10 01:35:31;;;;;;;5.57;2.35;;;;;;;;;;6128087;23;20010;-94
2023/06/10 01:37:58;;;;;;;5.07;2.85;;;;;;;;;;6128676;23;20427;-93
2023/06/10 01:40:26;;;;;;;3.92;2.42;;;;;;;;;;6130416;23;20380;-94
2023/06/10 01:42:52;;;;;;;5.45;3.05;;;;;;;;;;6106168;23;20024;-92
2023/06/10 01:45:18;;;;;;;4.13;2.97;;;;;;;;;;6104095;23;20053;-95
2023/06/10 01:47:44;;;;;;;6.80;2.95;;;;;;;;;;6104102;23;20356;-90
2023/06/10 01:50:11;;;;;;;6.72;3.05;;;;;;;;;;6104639;23;20092;-94
2023/06/10 01:52:38;;;;;;;4.57;2.92;;;;;;;;;;6102181;23;20745;-93
2023/06/10 01:55:04;;;;;;;4.78;2.70;;;;;;;;;;6128495;23;20014;-92
2023/06/10 01:57:31;;;;;;;7.47;3.10;;;;;;;;;;6127487;23;20014;-91
2023/06/10 01:59:57;;;;;;;5.15;3.00;;;;;;;;;;6127966;23;20014;-94
2023/06/10 02:02:24;;;;;;;6.78;3.00;;;;;;;;;;6126637;23;20014;-93
2023/06/10 02:04:50;;;;;;;4.97;2.97;;;;;;;;;;6127378;23;20013;-91
2023/06/10 02:07:16;;;;;;;5.30;2.58;;;;;;;;;;6130059;23;20016;-92
2023/06/10 02:09:42;;;;;;;4.97;2.80;;;;;;;;;;6128528;23;20018;-93
2023/06/10 02:12:10;;;;;;;5.80;2.72;;;;;;;;;;6102718;23;20021;-91
2023/06/10 02:14:36;;;;;;;5.55;2.70;;;;;;;;;;6128263;23;20042;-94
2023/06/10 02:17:02;;;;;;;4.95;3.13;;;;;;;;;;6127699;23;20324;-93
2023/06/10 02:19:28;;;;;;;6.20;2.95;;;;;;;;;;6125507;23;20340;-89
2023/06/10 02:21:54;;;;;;;5.03;2.40;;;;;;;;;;6126930;23;20018;-90
2023/06/10 02:24:21;;;;;;;3.72;2.70;;;;;;;;;;6127028;23;20029;-93
2023/06/10 02:26:47;;;;;;;4.07;2.63;;;;;;;;;;6127649;23;20025;-89
2023/06/10 02:29:13;;;;;;;3.72;2.47;;;;;;;;;;6130148;23;20052;-93
2023/06/10 02:31:40;;;;;;;5.18;2.53;;;;;;;;;;6127655;23;20014;-93
2023/06/10 02:34:08;;;;;;;6.10;2.92;;;;;;;;;;6103990;23;20022;-95
2023/06/10 02:36:35;;;;;;;7.88;3.03;;;;;;;;;;6129942;23;20024;-92
2023/06/10 02:39:02;;;;;;;6.35;2.35;;;;;;;;;;6128327;23;20028;-95
2023/06/10 02:41:28;;;;;;;4.47;2.70;;;;;;;;;;6127955;23;20010;-92
2023/06/10 02:43:54;;;;;;;3.03;2.35;;;;;;;;;;6126667;23;20013;-90
2023/06/10 02:46:21;;;;;;;3.72;2.50;;;;;;;;;;6126442;23;20029;-96
2023/06/10 02:48:49;;;;;;;4.78;2.53;;;;;;;;;;6128018;23;20117;-92
2023/06/10 02:51:15;;;;;;;3.67;2.67;;;;;;;;;;6102452;23;20050;-90
2023/06/10 02:53:42;;;;;;;5.85;2.90;;;;;;;;;;6128564;23;20021;-94
2023/06/10 02:56:09;;;;;;;3.42;3.13;;;;;;;;;;6130193;23;20192;-90
2023/06/10 02:58:35;;;;;;;3.83;2.53;;;;;;;;;;6127244;23;20051;-94
2023/06/10 03:01:01;;;;;;;4.38;2.78;;;;;;;;;;6125259;23;20017;-93
2023/06/10 03:03:27;;;;;;;4.72;2.65;;;;;;;;;;6123377;23;20018;-94
2023/06/10 03:05:53;;;;;;;3.42;2.58;;;;;;;;;;6102822;23;20131;-90
2023/06/10 03:08:19;;;;;;;4.75;2.60;;;;;;;;;;6127473;23;20073;-94
2023/06/10 03:10:45;;;;;;;5.82;2.78;;;;;;;;;;6128253;23;20014;-92
2023/06/10 03:13:11;;;;;;;3.75;2.63;;;;;;;;;;6126227;23;20020;-95
2023/06/10 03:15:37;;;;;;;3.00;2.35;;;;;;;;;;6100810;23;20021;-90
2023/06/10 03:18:03;;;;;;;5.07;2.63;;;;;;;;;;6123061;23;20014;-89
2023/06/10 03:20:29;;;;;;;5.55;2.67;;;;;;;;;;6124773;23;20010;-90
2023/06/10 03:22:55;;;;;;;4.20;2.42;;;;;;;;;;6100217;23;20053;-93
2023/06/10 03:25:21;;;;;;;5.50;2.70;;;;;;;;;;6100762;23;20021;-92
2023/06/10 03:27:47;;;;;;;4.95;2.53;;;;;;;;;;6127509;23;20026;-88
2023/06/10 03:30:14;;;;;;;5.13;2.60;;;;;;;;;;6124938;23;20026;-90
2023/06/10 03:32:40;;;;;;;5.55;3.00;;;;;;;;;;6122593;23;20014;-93
2023/06/10 03:35:07;;;;;;;3.22;2.40;;;;;;;;;;6098890;23;20018;-88
2023/06/10 03:37:33;;;;;;;5.75;2.65;;;;;;;;;;6123750;23;20434;-94
2023/06/10 03:39:59;;;;;;;4.15;2.65;;;;;;;;;;6101998;23;20018;-94
2023/06/10 03:42:25;;;;;;;4.53;2.80;;;;;;;;;;6100733;23;20014;-91
2023/06/10 03:44:54;;;;;;;3.75;2.40;;;;;;;;;;6101754;23;20014;-90
2023/06/10 03:47:21;;;;;;;4.50;2.30;;;;;;;;;;6126674;23;20049;-91
2023/06/10 03:49:47;;;;;;;5.82;2.47;;;;;;;;;;6101584;23;20018;-88
2023/06/10 03:52:13;;;;;;;4.93;2.72;;;;;;;;;;6125762;23;20131;-89
2023/06/10 03:54:39;;;;;;;3.60;2.38;;;;;;;;;;6100901;23;20033;-91
2023/06/10 03:57:05;;;;;;;4.55;2.85;;;;;;;;;;6103235;23;20014;-93
2023/06/10 03:59:32;;;;;;;4.85;2.35;;;;;;;;;;6125460;23;20010;-89
2023/06/10 04:01:58;;;;;;;6.18;2.42;;;;;;;;;;6126615;23;20010;-91
2023/06/10 04:04:24;;;;;;;3.70;2.80;;;;;;;;;;6101489;23;20356;-91
2023/06/10 04:06:51;;;;;;;4.50;2.42;;;;;;;;;;6102846;23;20018;-94
2023/06/10 04:09:17;;;;;;;4.90;2.75;;;;;;;;;;6103116;23;20072;-87
2023/06/10 04:11:43;;;;;;;4.53;2.75;;;;;;;;;;6125782;23;20017;-92
2023/06/10 04:14:09;;;;;;;3.75;2.67;;;;;;;;;;6101113;23;20033;-92
2023/06/10 04:16:35;;;;;;;5.45;2.90;;;;;;;;;;6100868;23;20105;-89
2023/06/10 04:19:01;;;;;;;5.07;2.80;;;;;;;;;;6126223;23;20021;-96
2023/06/10 04:21:28;;;;;;;5.82;2.53;;;;;;;;;;6102050;23;20018;-94
2023/06/10 04:23:54;;;;;;;5.43;2.33;;;;;;;;;;6130173;23;20073;-92
2023/06/10 04:26:21;;;;;;;4.53;3.03;;;;;;;;;;6126691;23;20030;-94
2023/06/10 04:28:47;;;;;;;5.40;2.50;;;;;;;;;;6128937;23;20022;-91
2023/06/10 04:31:14;;;;;;;5.38;2.63;;;;;;;;;;6104015;23;20018;-95
2023/06/10 04:33:44;;;;;;;4.07;2.63;;;;;;;;;;6128239;23;20022;-93
2023/06/10 04:36:14;;;;;;;4.60;2.75;;;;;;;;;;6127619;23;20014;-94
2023/06/10 04:38:41;;;;;;;4.93;3.50;;;;;;;;;;6104190;23;20014;-94
2023/06/10 04:41:07;;;;;;;6.57;2.60;;;;;;;;;;6124981;23;20013;-89
2023/06/10 04:43:33;;;;;;;5.85;3.25;;;;;;;;;;6123971;23;20014;-87
2023/06/10 04:45:59;;;;;;;3.53;2.53;;;;;;;;;;6124000;23;20017;-86
2023/06/10 04:48:25;;;;;;;7.05;3.25;;;;;;;;;;6119642;23;20026;-86
2023/06/10 04:50:51;;;;;;;5.47;2.90;;;;;;;;;;6121556;23;20009;-84
2023/06/10 04:53:18;;;;;;;5.03;2.50;;;;;;;;;;6122151;23;20017;-91
2023/06/10 04:55:44;;;;;;;4.28;2.60;;;;;;;;;;6123171;23;20010;-87
2023/06/10 04:58:10;;;;;;;3.97;2.65;;;;;;;;;;6120340;23;20092;-87
2023/06/10 05:00:36;;;;;;;5.70;2.70;;;;;;;;;;6119349;23;20439;-91
2023/06/10 05:03:02;;;;;;;4.32;2.67;;;;;;;;;;6096846;23;20428;-86
2023/06/10 05:05:28;;;;;;;5.93;2.70;;;;;;;;;;6119594;23;20022;-88
2023/06/10 05:07:54;;;;;;;5.65;3.10;;;;;;;;;;6118808;23;20017;-86
2023/06/10 05:10:20;;;;;;;4.70;3.20;;;;;;;;;;6118458;23;20321;-87
2023/06/10 05:12:46;;;;;;;6.45;2.90;;;;;;;;;;6120687;23;20328;-89
2023/06/10 05:15:12;;;;;;;5.75;3.00;;;;;;;;;;6121055;23;20045;-89
2023/06/10 05:17:38;;;;;;;4.95;2.83;;;;;;;;;;6095432;23;20715;-87
2023/06/10 05:20:05;;;;;;;3.85;2.70;;;;;;;;;;6120189;23;20014;-93
2023/06/10 05:22:31;;;;;;;7.95;3.38;;;;;;;;;;6120228;23;20026;-85
2023/06/10 05:24:57;;;;;;;6.22;3.30;;;;;;;;;;6121686;23;20099;-87
2023/06/10 05:27:23;;;;;;;5.85;3.30;;;;;;;;;;6122098;23;20029;-90
2023/06/10 05:29:49;;;;;;;6.30;2.90;;;;;;;;;;6123859;23;20014;-87
2023/06/10 05:32:15;;;;;;;6.63;3.33;;;;;;;;;;6119872;23;20018;-90
2023/06/10 05:34:41;;;;;;;7.00;3.75;;;;;;;;;;6119695;23;20010;-88
2023/06/10 05:37:07;;;;;;;6.05;3.08;;;;;;;;;;6122748;23;20093;-85
2023/06/10 05:39:37;;;;;;;6.90;2.80;;;;;;;;;;6120941;23;20037;-87
2023/06/10 05:42:03;;;;;;;5.28;2.95;;;;;;;;;;6120878;23;20013;-88
2023/06/10 05:44:29;;;;;;;5.13;3.15;;;;;;;;;;6120796;23;20043;-86
2023/06/10 05:46:55;;;;;;;4.65;3.20;;;;;;;;;;6122137;23;20336;-86
2023/06/10 05:49:21;;;;;;;5.63;3.38;;;;;;;;;;6120725;23;20021;-90
2023/06/10 05:51:47;;;;;;;7.18;2.85;;;;;;;;;;6122731;23;20041;-89
2023/06/10 05:54:13;;;;;;;7.03;3.50;;;;;;;;;;6122715;23;20017;-90
2023/06/10 05:56:39;;;;;;;6.30;2.90;;;;;;;;;;6119914;23;20021;-89
2023/06/10 05:59:05;;;;;;;5.53;3.00;;;;;;;;;;6124437;23;20032;-90
2023/06/10 06:01:31;;;;;;;6.05;3.58;;;;;;;;;;6119333;23;20076;-90
2023/06/10 06:03:57;;;;;;;5.70;3.40;;;;;;;;;;6121452;23;20014;-87
2023/06/10 06:06:24;;;;;;;6.28;3.40;;;;;;;;;;6123057;23;20342;-87
2023/06/10 06:08:50;;;;;;;4.57;3.00;;;;;;;;;;6123307;23;20014;-90
2023/06/10 06:11:16;;;;;;;7.45;3.88;;;;;;;;;;6119213;23;20029;-85
2023/06/10 06:13:42;;;;;;;8.35;3.25;;;;;;;;;;6119325;23;20058;-85
2023/06/10 06:16:08;;;;;;;3.72;2.95;;;;;;;;;;6120940;23;20021;-86
2023/06/10 06:18:34;;;;;;;4.05;2.90;;;;;;;;;;6118570;23;20053;-84
2023/06/10 06:21:00;;;;;;;7.07;2.95;;;;;;;;;;6119015;23;20014;-88
2023/06/10 06:23:26;;;;;;;7.18;3.20;;;;;;;;;;6118527;23;20022;-87
2023/06/10 06:25:52;;;;;;;8.73;3.25;;;;;;;;;;6120207;23;20029;-85
2023/06/10 06:28:20;;;;;;;6.18;3.13;;;;;;;;;;6119981;23;20022;-84
2023/06/10 06:30:46;;;;;;;6.40;3.10;;;;;;;;;;6119145;23;20049;-88
2023/06/10 06:33:12;;;;;;;7.40;3.30;;;;;;;;;;6121830;23;20018;-83
2023/06/10 06:35:38;;;;;;;7.68;3.30;;;;;;;;;;6118757;23;20084;-85
2023/06/10 06:38:04;;;;;;;8.63;3.70;;;;;;;;;;6120801;23;20384;-91
2023/06/10 06:40:31;;;;;;;8.13;4.00;;;;;;;;;;6120720;23;20347;-86
2023/06/10 06:42:57;;;;;;;7.53;3.33;;;;;;;;;;6119600;23;20348;-87
2023/06/10 06:45:23;;;;;;;5.68;3.08;;;;;;;;;;6120078;23;20719;-87
2023/06/10 06:47:49;;;;;;;6.20;3.33;;;;;;;;;;6123297;23;20018;-91
2023/06/10 06:50:16;;;;;;;6.80;3.40;;;;;;;;;;6124244;23;20017;-89
2023/06/10 06:52:42;;;;;;;5.40;2.95;;;;;;;;;;6122171;23;20013;-90
2023/06/10 06:55:08;;;;;;;7.05;3.50;;;;;;;;;;6122938;23;20033;-91
2023/06/10 06:57:34;;;;;;;6.90;3.35;;;;;;;;;;6119531;23;20017;-88
2023/06/10 07:00:00;;;;;;;8.20;3.30;;;;;;;;;;6123609;23;20029;-89
2023/06/10 07:02:29;;;;;;;5.10;2.83;;;;;;;;;;6121729;23;20014;-91
2023/06/10 07:04:55;;;;;;;3.75;2.53;;;;;;;;;;6124404;23;20014;-88
2023/06/10 07:07:22;;;;;;;5.05;3.35;;;;;;;;;;6121911;23;20025;-89
2023/06/10 07:09:48;;;;;;;6.07;3.50;;;;;;;;;;6121910;23;20026;-87
2023/06/10 07:12:14;;;;;;;5.32;2.95;;;;;;;;;;6122249;23;20018;-90
2023/06/10 07:14:43;;;;;;;6.40;3.53;;;;;;;;;;6121774;23;20014;-88
2023/06/10 07:17:09;;;;;;;6.35;3.60;;;;;;;;;;6121439;23;20053;-83
2023/06/10 07:19:35;;;;;;;5.60;2.70;;;;;;;;;;6120983;23;20391;-85
2023/06/10 07:22:01;;;;;;;4.50;2.70;;;;;;;;;;6123480;23;20145;-85
2023/06/10 07:24:27;;;;;;;4.88;2.85;;;;;;;;;;6122973;23;20348;-86
2023/06/10 07:26:53;;;;;;;6.60;2.90;;;;;;;;;;6123472;23;20013;-87
2023/06/10 07:29:19;;;;;;;4.43;2.80;;;;;;;;;;6121979;23;20506;-87
2023/06/10 07:31:45;;;;;;;5.15;2.70;;;;;;;;;;6096753;23;20014;-86
2023/06/10 07:34:11;;;;;;;4.45;3.10;;;;;;;;;;6123469;23;20010;-86
2023/06/10 07:36:37;;;;;;;4.57;3.15;;;;;;;;;;6120651;23;20091;-85
2023/06/10 07:39:05;;;;;;;5.53;3.40;;;;;;;;;;6123309;23;20093;-83
2023/06/10 07:41:31;;;;;;;4.60;3.00;;;;;;;;;;6122258;23;20010;-80
2023/06/10 07:43:57;;;;;;;5.55;2.50;;;;;;;;;;6119486;23;20013;-84
2023/06/10 07:46:24;;;;;;;4.93;2.53;;;;;;;;;;6120175;23;20478;-83
2023/06/10 07:48:50;;;;;;;7.32;3.22;;;;;;;;;;6122930;23;20364;-81
2023/06/10 07:51:17;;;;;;;7.75;3.40;;;;;;;;;;6119538;23;20495;-83
2023/06/10 07:53:43;;;;;;;5.32;2.92;;;;;;;;;;6119596;23;20022;-82
2023/06/10 07:56:09;;;;;;;4.57;3.00;;;;;;;;;;6120590;23;20018;-86
2023/06/10 07:58:35;;;;;;;7.13;3.33;;;;;;;;;;6119148;23;20053;-86
2023/06/10 08:01:01;;;;;;;4.40;3.08;;;;;;;;;;6121309;23;20014;-88
2023/06/10 08:03:27;;;;;;;7.68;4.10;;;;;;;;;;6121514;23;20018;-84
2023/06/10 08:05:53;;;;;;;3.97;3.42;;;;;;;;;;6094979;23;20098;-82
2023/06/10 08:08:19;;;;;;;7.15;3.78;;;;;;;;;;6121896;23;20065;-83
2023/06/10 08:10:45;;;;;;;4.55;3.40;;;;;;;;;;6119960;23;20397;-85
2023/06/10 08:13:11;;;;;;;5.95;3.88;;;;;;;;;;6120042;23;20026;-80
2023/06/10 08:15:37;;;;;;;5.32;3.63;;;;;;;;;;6120991;23;20049;-81
2023/06/10 08:18:03;;;;;;;5.97;3.67;;;;;;;;;;6122136;23;20426;-79
2023/06/10 08:20:29;;;;;;;4.32;3.33;;;;;;;;;;6119273;23;20093;-81
2023/06/10 08:22:55;;;;;;;7.10;3.55;;;;;;;;;;6120788;23;20029;-81
2023/06/10 08:25:22;;;;;;;4.28;3.33;;;;;;;;;;6120503;23;20021;-81
2023/06/10 08:27:48;;;;;;;6.75;3.50;;;;;;;;;;6122321;23;20022;-82
2023/06/10 08:30:14;;;;;;;5.15;3.70;;;;;;;;;;6122234;23;20089;-82
2023/06/10 08:32:40;;;;;;;5.63;3.38;;;;;;;;;;6120233;23;20018;-85
2023/06/10 08:35:06;;;;;;;4.65;2.92;;;;;;;;;;6123238;23;20014;-84
2023/06/10 08:37:32;;;;;;;7.43;3.63;;;;;;;;;;6121149;23;20317;-86
2023/06/10 08:39:58;;;;;;;7.45;3.33;;;;;;;;;;6121627;23;20024;-86
2023/06/10 08:42:27;;;;;;;5.70;3.15;;;;;;;;;;6119783;23;20309;-81
2023/06/10 08:44:58;;;;;;;5.03;3.17;;;;;;;;;;6120405;23;20041;-84
2023/06/10 08:47:25;;;;;;;3.95;3.20;;;;;;;;;;6120630;23;20032;-83
2023/06/10 08:49:52;;;;;;;4.38;3.17;;;;;;;;;;6120802;23;20021;-85
2023/06/10 08:52:21;;;;;;;3.70;3.17;;;;;;;;;;6122225;23;20025;-80
2023/06/10 08:54:57;;;;;;;4.97;2.90;;;;;;;;;;6120209;23;20022;-84
2023/06/10 08:57:23;;;;;;;4.72;3.45;;;;;;;;;;6119984;23;20021;-85
2023/06/10 08:59:49;;;;;;;4.53;2.85;;;;;;;;;;6095576;23;20104;-85
2023/06/10 09:02:19;;;;;;;4.32;3.00;;;;;;;;;;6119997;23;20088;-81
2023/06/10 09:04:46;;;;;;;5.50;3.33;;;;;;;;;;6122309;23;20018;-83
2023/06/10 09:07:14;;;;;;;5.18;3.42;;;;;;;;;;6120399;23;20020;-80
2023/06/10 09:09:40;;;;;;;4.13;3.30;;;;;;;;;;6119494;23;20535;-82
2023/06/10 09:12:06;;;;;;;3.83;3.53;;;;;;;;;;6120308;23;20352;-85
2023/06/10 09:14:32;;;;;;;4.13;3.15;;;;;;;;;;6119257;23;20089;-84
2023/06/10 09:16:58;;;;;;;4.22;3.05;;;;;;;;;;6120406;23;20018;-79
2023/06/10 09:19:29;;;;;;;5.53;3.20;;;;;;;;;;6096090;23;20018;-87
2023/06/10 09:21:55;;;;;;;;;;;;;;;;;;6123793;23;20329;-87
2023/06/10 09:24:24;;;;;;;3.85;2.17;;;;;;;;;;6120289;23;19964;-89
2023/06/10 09:26:50;;;;;;;3.72;2.95;;;;;;;;;;6123557;23;20041;-90
2023/06/10 09:29:17;;;;;;;4.70;3.40;;;;;;;;;;6122730;23;20380;-85
2023/06/10 09:31:44;;;;;;;4.72;3.20;;;;;;;;;;6122294;23;20057;-87
2023/06/10 09:34:14;;;;;;;7.45;2.80;;;;;;;;;;6122258;23;20010;-85
2023/06/10 09:36:40;;;;;;;4.55;2.83;;;;;;;;;;6121522;23;20043;-87
2023/06/10 09:39:15;;;;;;;6.03;3.10;;;;;;;;;;6120784;23;20388;-87
2023/06/10 09:41:41;;;;;;;3.50;2.30;;;;;;;;;;6120494;23;20014;-85
2023/06/10 09:44:14;;;;;;;3.75;2.47;;;;;;;;;;6121023;23;20506;-91
2023/06/10 09:46:40;;;;;;;3.20;2.70;;;;;;;;;;6118916;23;20049;-89
2023/06/10 09:49:06;;;;;;;4.32;2.88;;;;;;;;;;6121094;23;20026;-85
2023/06/10 09:51:33;;;;;;;6.10;2.30;;;;;;;;;;6119948;23;20071;-88
2023/06/10 09:53:59;;;;;;;4.35;2.40;;;;;;;;;;6122175;23;20332;-88
2023/06/10 09:56:40;;;;;;;3.00;2.40;;;;;;;;;;6122035;23;20093;-83
2023/06/10 09:59:06;;;;;;;3.25;2.38;;;;;;;;;;6119689;23;20022;-84
2023/06/10 10:01:33;;;;;;;3.70;2.50;;;;;;;;;;6122270;23;20010;-91
2023/06/10 10:04:00;;;;;;;4.15;2.40;;;;;;;;;;6125541;23;20010;-87
2023/06/10 10:06:26;;;;;;;4.60;2.60;;;;;;;;;;6119602;23;20050;-88
2023/06/10 10:08:52;;;;;;;3.20;2.03;;;;;;;;;;6119560;23;20018;-87
2023/06/10 10:11:21;;;;;;;2.70;2.20;;;;;;;;;;6120841;23;20021;-84
2023/06/10 10:13:49;;;;;;;2.15;1.95;;;;;;;;;;6122941;23;20018;-86
2023/06/10 10:16:15;;;;;;;2.10;1.83;;;;;;;;;;6121794;23;20133;-91
2023/06/10 10:18:51;;;;;;;1.98;1.83;;;;;;;;;;6123080;23;20010;-84
2023/06/10 10:21:19;;;;;;;3.10;2.42;;;;;;;;;;6121989;23;20401;-89
2023/06/10 10:23:53;;;;;;;2.65;2.13;;;;;;;;;;6096577;23;20014;-88
2023/06/10 10:26:22;;;;;;;4.63;2.40;;;;;;;;;;6121169;23;20077;-89
2023/06/10 10:28:51;;;;;;;4.45;2.53;;;;;;;;;;6122610;23;20567;-86
2023/06/10 10:31:19;;;;;;;3.20;2.13;;;;;;;;;;6121335;23;20029;-91
2023/06/10 10:34:03;;;;;;;4.43;2.05;;;;;;;;;;6123572;23;20018;-85
2023/06/10 10:36:29;;;;;;;2.40;2.05;;;;;;;;;;6095842;23;20025;-93
2023/06/10 10:38:56;;;;;;;3.30;2.38;;;;;;;;;;6120012;23;20041;-87
2023/06/10 10:41:23;;;;;;;2.67;2.28;;;;;;;;;;6098379;23;20020;-87
2023/06/10 10:43:51;;;;;;;2.13;1.90;;;;;;;;;;6125258;23;20077;-84
2023/06/10 10:46:17;;;;;;;3.10;2.78;;;;;;;;;;6125451;23;20399;-92
2023/06/10 10:48:44;;;;;;;3.13;2.28;;;;;;;;;;6096887;23;20048;-91
2023/06/10 10:51:11;;;;;;;4.38;2.05;;;;;;;;;;6120099;23;20039;-92
2023/06/10 10:53:38;;;;;;;4.30;2.15;;;;;;;;;;6119858;23;20068;-89
2023/06/10 10:56:04;;;;;;;3.33;1.92;;;;;;;;;;6123249;23;20097;-87
2023/06/10 10:58:31;;;;;;;3.90;2.35;;;;;;;;;;6121207;23;20377;-93
2023/06/10 11:00:58;;;;;;;5.63;2.35;;;;;;;;;;6125322;23;20018;-92
2023/06/10 11:03:28;;;;;;;2.53;2.08;;;;;;;;;;6121622;23;20435;-90
2023/06/10 11:05:57;;;;;;;3.13;1.98;;;;;;;;;;6124057;23;20017;-95
2023/06/10 11:08:47;;;;;;;3.05;1.88;;;;;;;;;;6097181;23;20014;-86
2023/06/10 11:11:25;;;;;;;3.30;1.90;;;;;;;;;;6079610;23;20010;-85
2023/06/10 11:14:17;;;;;;;3.50;1.83;;;;;;;;;;6121999;23;20344;-89
2023/06/10 11:16:44;;;;;;;8.93;2.42;;;;;;;;;;6115106;23;20440;-82
2023/06/10 11:19:10;;;;;;;4.00;2.35;;;;;;;;;;6119432;23;20049;-90
2023/06/10 11:21:59;;;;;;;2.38;1.90;;;;;;;;;;6118911;23;20018;-83
2023/06/10 11:24:25;;;;;;;3.67;1.88;;;;;;;;;;6118643;23;20018;-86
2023/06/10 11:26:52;;;;;;;2.95;1.60;;;;;;;;;;6120846;23;20018;-85
2023/06/10 11:29:19;;;;;;;3.40;1.73;;;;;;;;;;6120819;23;20024;-88
2023/06/10 11:31:47;;;;;;;2.35;1.70;;;;;;;;;;6123333;23;20093;-90
2023/06/10 11:34:13;;;;;;;2.50;1.77;;;;;;;;;;6123066;23;20021;-90
2023/06/10 11:36:42;;;;;;;2.55;1.80;;;;;;;;;;6121355;23;20239;-85
2023/06/10 11:39:08;;;;;;;2.20;1.70;;;;;;;;;;6125207;23;20335;-86
2023/06/10 11:41:35;;;;;;;1.85;1.52;;;;;;;;;;6098500;23;20094;-89
2023/06/10 11:44:05;;;;;;;4.75;1.65;;;;;;;;;;6121768;23;20018;-85
2023/06/10 11:46:31;;;;;;;2.60;1.70;;;;;;;;;;6120332;23;20097;-85
2023/06/10 11:49:02;;;;;;;1.90;1.42;;;;;;;;;;6122598;23;20018;-87
2023/06/10 11:51:35;;;;;;;4.72;1.95;;;;;;;;;;6121184;23;20025;-89
2023/06/10 11:54:01;;;;;;;2.30;1.80;;;;;;;;;;6123753;23;20025;-89
2023/06/10 11:56:28;;;;;;;3.20;1.90;;;;;;;;;;6123583;23;20065;-88
2023/06/10 11:59:04;;;;;;;2.10;1.58;;;;;;;;;;6124103;23;20327;-84
2023/06/10 12:01:31;;;;;;;2.90;1.70;;;;;;;;;;6121437;23;20049;-90
2023/06/10 12:04:04;;;;;;;2.17;1.52;;;;;;;;;;6124415;23;20021;-95
2023/06/10 12:06:39;;;;;;;2.67;1.60;;;;;;;;;;6121469;23;20018;-81
2023/06/10 12:09:06;;;;;;;2.17;1.67;;;;;;;;;;6121792;23;20062;-84
2023/06/10 12:11:32;;;;;;;2.83;1.67;;;;;;;;;;6120671;23;20036;-85
2023/06/10 12:13:58;;;;;;;2.25;1.63;;;;;;;;;;6119807;23;20022;-85
2023/06/10 12:16:24;;;;;;;2.20;1.52;;;;;;;;;;6119559;23;20022;-84
2023/06/10 12:18:50;;;;;;;1.67;1.50;;;;;;;;;;6121381;23;20016;-92
2023/06/10 12:21:20;;;;;;;2.75;1.40;;;;;;;;;;6119678;23;20033;-84
2023/06/10 12:24:04;;;;;;;3.78;1.80;;;;;;;;;;6122310;23;20024;-85
2023/06/10 12:26:37;;;;;;;2.58;1.52;;;;;;;;;;6119167;23;20025;-87
2023/06/10 12:29:24;;;;;;;1.70;1.60;;;;;;;;;;6122751;23;20018;-92
2023/06/10 12:32:01;;;;;;;5.13;1.70;;;;;;;;;;6096283;23;20348;-87
2023/06/10 12:34:31;;;;;;;2.05;1.60;;;;;;;;;;6119137;23;20018;-83
2023/06/10 12:36:56;;;;;;;;;;;;;;;;;;6120264;23;20092;-88
2023/06/10 12:39:22;;;;;;;1.67;1.58;;;;;;;;;;6120471;23;19940;-89
2023/06/10 12:41:49;;;;;;;2.40;1.50;;;;;;;;;;6121104;23;20089;-86
2023/06/10 12:44:16;;;;;;;1.95;1.50;;;;;;;;;;6122520;23;20010;-88
2023/06/10 12:46:42;;;;;;;2.78;1.98;;;;;;;;;;6096484;23;20018;-90
2023/06/10 12:49:09;;;;;;;1.98;1.40;;;;;;;;;;6119588;23;20090;-88
2023/06/10 12:51:36;;;;;;;3.83;1.67;;;;;;;;;;6120193;23;20077;-84
2023/06/10 12:54:02;;;;;;;2.10;1.45;;;;;;;;;;6120236;23;20059;-88
2023/06/10 12:56:28;;;;;;;4.40;1.67;;;;;;;;;;6121313;23;20061;-87
2023/06/10 12:58:54;;;;;;;1.52;1.30;;;;;;;;;;6122167;23;20014;-85
2023/06/10 13:01:21;;;;;;;2.78;2.00;;;;;;;;;;6119430;23;20049;-86
2023/06/10 13:03:47;;;;;;;2.90;1.80;;;;;;;;;;6119104;23;20112;-85
2023/06/10 13:06:13;;;;;;;2.70;1.70;;;;;;;;;;6122518;23;20013;-83
2023/06/10 13:08:39;;;;;;;2.53;1.70;;;;;;;;;;6119594;23;20149;-85
2023/06/10 13:11:05;;;;;;;2.35;1.80;;;;;;;;;;6119580;23;20018;-88
2023/06/10 13:13:31;;;;;;;3.78;1.45;;;;;;;;;;6119375;23;20088;-86
2023/06/10 13:15:57;;;;;;;3.50;1.85;;;;;;;;;;6120043;23;20037;-84
2023/06/10 13:18:23;;;;;;;3.22;1.90;;;;;;;;;;6120930;23;20532;-86
2023/06/10 13:20:49;;;;;;;2.03;1.58;;;;;;;;;;6119631;23;20041;-89
2023/06/10 13:23:15;;;;;;;2.60;1.50;;;;;;;;;;6121189;23;20519;-88
2023/06/10 13:25:44;;;;;;;3.80;1.67;;;;;;;;;;6119738;23;20017;-90
2023/06/10 13:28:11;;;;;;;2.38;1.88;;;;;;;;;;6120479;23;20022;-85
2023/06/10 13:30:37;;;;;;;2.13;1.52;;;;;;;;;;6095578;23;20097;-84
2023/06/10 13:33:03;;;;;;;2.45;1.85;;;;;;;;;;6119842;23;20456;-85
2023/06/10 13:35:29;;;;;;;2.70;1.63;;;;;;;;;;6121576;23;20093;-88
2023/06/10 13:37:55;;;;;;;2.42;1.40;;;;;;;;;;6121293;23;20014;-81
2023/06/10 13:40:21;;;;;;;3.42;1.60;;;;;;;;;;6123661;23;20010;-86
2023/06/10 13:42:50;;;;;;;3.08;1.60;;;;;;;;;;6120152;23;20025;-87
2023/06/10 13:45:17;;;;;;;2.83;1.83;;;;;;;;;;6120646;23;20033;-86
2023/06/10 13:47:43;;;;;;;2.72;1.45;;;;;;;;;;6122179;23;20089;-84
2023/06/10 13:50:09;;;;;;;2.60;1.60;;;;;;;;;;6122859;23;20052;-89
2023/06/10 13:52:35;;;;;;;1.77;1.35;;;;;;;;;;6119157;23;20022;-87
2023/06/10 13:55:01;;;;;;;2.90;1.85;;;;;;;;;;6096168;23;20089;-84
2023/06/10 13:57:27;;;;;;;2.47;1.90;;;;;;;;;;6121752;23;20057;-84
2023/06/10 13:59:53;;;;;;;1.80;1.67;;;;;;;;;;6122378;23;20017;-87
2023/06/10 14:02:19;;;;;;;1.80;1.65;;;;;;;;;;6119646;23;20339;-88
2023/06/10 14:04:45;;;;;;;2.60;1.63;;;;;;;;;;6120392;23;20024;-84
2023/06/10 14:07:11;;;;;;;1.73;1.33;;;;;;;;;;6120976;23;20501;-84
2023/06/10 14:09:37;;;;;;;2.90;1.80;;;;;;;;;;6119740;23;20114;-82
2023/06/10 14:12:03;;;;;;;3.08;1.75;;;;;;;;;;6120066;23;20352;-84
2023/06/10 14:14:30;;;;;;;3.92;1.60;;;;;;;;;;6119224;23;20049;-86
2023/06/10 14:16:56;;;;;;;2.80;1.60;;;;;;;;;;6122494;23;20053;-84
2023/06/10 14:19:22;;;;;;;2.88;1.50;;;;;;;;;;6121271;23;20077;-86
2023/06/10 14:21:49;;;;;;;2.47;1.52;;;;;;;;;;6121117;23;20092;-89
2023/06/10 14:24:15;;;;;;;2.10;1.52;;;;;;;;;;6122071;23;20010;-86
2023/06/10 14:26:41;;;;;;;2.30;2.10;;;;;;;;;;6121186;23;20097;-84
2023/06/10 14:29:08;;;;;;;2.58;1.80;;;;;;;;;;6120174;23;20017;-87
2023/06/10 14:31:34;;;;;;;2.60;1.90;;;;;;;;;;6119275;23;20305;-86
2023/06/10 14:34:00;;;;;;;2.92;1.73;;;;;;;;;;6122114;23;20014;-90
2023/06/10 14:36:26;;;;;;;2.05;1.60;;;;;;;;;;6120013;23;20032;-86
2023/06/10 14:38:53;;;;;;;2.92;1.63;;;;;;;;;;6122027;23;20014;-83
2023/06/10 14:41:19;;;;;;;1.63;1.33;;;;;;;;;;6119964;23;20020;-89
2023/06/10 14:43:45;;;;;;;2.55;2.00;;;;;;;;;;6119371;23;20060;-91